Time;durP1;ratioP1;P1;durP2;ratioP2;P2;SDS_P1;SDS_P2;PMS_P1;PMS_P2;Temp;Humidity;BMP_temperature;BMP_pressure;BME280_temperature;BME280_humidity;BME280_pressure;Samples;Min_cycle;Max_cycle;Signal;HPM_P1;HPM_P2
2022/04/18 00:00:13;;;;;;;4.85;1.52;;;;;;;3.30;44.00;99912.25;5066179;28;20472;-41
2022/04/18 00:05:41;;;;;;;5.95;2.00;;;;;;;3.23;44.04;99909.72;5043312;28;20083;-38
2022/04/18 00:08:08;;;;;;;3.05;1.40;;;;;;;3.22;44.09;99905.44;5058202;28;20423;-38
2022/04/18 00:10:52;;;;;;;4.50;1.63;;;;;;;3.18;43.94;99911.44;5053639;28;20079;-37
2022/04/18 00:13:18;;;;;;;4.07;1.85;;;;;;;3.04;44.32;99888.31;5064419;28;20416;-38
2022/04/18 00:15:44;;;;;;;6.47;1.73;;;;;;;3.03;44.10;99901.19;5048525;28;20064;-38
2022/04/18 00:18:28;;;;;;;3.20;1.80;;;;;;;3.07;44.16;99908.00;5048692;28;20401;-38
2022/04/18 00:20:54;;;;;;;5.00;1.92;;;;;;;2.89;44.40;99873.78;5048488;28;20049;-37
2022/04/18 00:23:56;;;;;;;6.03;1.77;;;;;;;3.00;44.67;99891.75;5047768;28;20087;-38
2022/04/18 00:26:22;;;;;;;5.85;1.80;;;;;;;3.00;44.87;99907.16;5050189;28;20496;-37
2022/04/18 00:28:48;;;;;;;4.97;1.85;;;;;;;3.04;44.94;99905.44;5060771;28;20094;-37
2022/04/18 00:31:14;;;;;;;3.42;1.58;;;;;;;3.02;44.65;99910.59;5030604;28;20091;-37
2022/04/18 00:33:40;;;;;;;8.43;1.92;;;;;;;2.98;44.84;99909.72;5052322;28;20069;-40
2022/04/18 00:36:24;;;;;;;6.20;2.00;;;;;;;2.96;44.92;99913.16;5045592;28;20045;-38
2022/04/18 00:38:50;;;;;;;5.40;1.60;;;;;;;2.95;44.92;99911.44;5053982;28;20040;-38
2022/04/18 00:44:18;;;;;;;5.55;1.67;;;;;;;2.90;45.11;99918.28;5048658;28;20127;-38
2022/04/18 00:46:44;;;;;;;5.22;1.55;;;;;;;2.80;45.03;99907.16;5048419;28;20497;-39
2022/04/18 00:49:10;;;;;;;5.85;1.48;;;;;;;2.84;44.99;99911.44;5062440;28;20041;-38
2022/04/18 00:51:36;;;;;;;6.70;1.67;;;;;;;2.84;45.24;99908.88;5054863;28;20611;-39
2022/04/18 00:54:02;;;;;;;7.20;1.45;;;;;;;2.88;45.33;99910.56;5048416;28;20037;-38
2022/04/18 00:56:28;;;;;;;2.83;1.30;;;;;;;2.70;45.42;99886.63;5050678;28;20036;-39
2022/04/18 00:58:55;;;;;;;4.85;1.30;;;;;;;2.84;45.50;99911.44;5059264;28;20075;-38
2022/04/18 01:01:20;;;;;;;5.97;1.73;;;;;;;2.84;45.24;99908.88;5047396;28;20047;-39
2022/04/18 01:04:05;;;;;;;4.35;1.60;;;;;;;2.85;45.42;99909.72;5047983;28;20524;-38
2022/04/18 01:06:32;;;;;;;4.88;1.70;;;;;;;2.79;45.11;99914.84;5054374;28;20037;-38
2022/04/18 01:08:59;;;;;;;2.28;1.27;;;;;;;2.77;45.43;99917.44;5060243;28;20524;-38
2022/04/18 01:11:24;;;;;;;2.92;1.70;;;;;;;2.74;45.77;99909.72;5049202;28;20538;-37
2022/04/18 01:14:09;;;;;;;5.15;1.70;;;;;;;2.74;45.92;99908.84;5052987;28;20040;-39
2022/04/18 01:16:37;;;;;;;5.15;2.03;;;;;;;2.70;45.82;99910.56;5074964;28;20043;-38
2022/04/18 01:19:31;;;;;;;3.40;1.50;;;;;;;2.67;45.87;99914.88;5065155;28;20895;-38
2022/04/18 01:22:33;;;;;;;2.95;1.55;;;;;;;2.63;45.88;99908.84;5052305;28;20417;-38
2022/04/18 01:30:57;;;;;;;3.50;1.75;;;;;;;2.59;45.81;99899.44;5070461;28;20045;-37
2022/04/18 01:33:24;;;;;;;3.95;1.50;;;;;;;2.56;46.25;99899.44;5058558;28;20045;-38
2022/04/18 01:36:09;;;;;;;5.22;1.85;;;;;;;2.54;46.16;99901.16;5057796;28;20087;-37
2022/04/18 01:38:36;;;;;;;7.22;1.85;;;;;;;2.49;46.29;99893.44;5059683;28;20040;-38
2022/04/18 01:41:03;;;;;;;6.78;1.70;;;;;;;2.49;46.71;99892.59;5073398;28;20135;-39
2022/04/18 01:43:30;;;;;;;4.70;1.50;;;;;;;2.48;46.39;99896.00;5060423;28;20041;-38
2022/04/18 01:45:58;;;;;;;5.28;1.25;;;;;;;2.47;46.40;99890.00;5052889;28;20102;-38
2022/04/18 01:48:26;;;;;;;2.95;1.70;;;;;;;2.45;46.57;99896.00;5053406;28;20466;-39
2022/04/18 01:56:21;;;;;;;3.45;1.88;;;;;;;2.42;46.76;99901.97;5066012;28;20534;-39
2022/04/18 01:58:48;;;;;;;3.28;1.55;;;;;;;2.38;46.76;99896.84;5064452;28;20036;-38
2022/04/18 02:01:33;;;;;;;8.40;2.25;;;;;;;2.37;46.89;99900.25;5057630;28;20102;-38
2022/04/18 02:04:18;;;;;;;4.38;1.65;;;;;;;2.34;47.01;99893.41;5056542;28;20048;-38
2022/04/18 02:07:22;;;;;;;5.45;1.75;;;;;;;2.32;47.13;99892.56;5082748;28;20033;-37
2022/04/18 02:09:52;;;;;;;3.22;1.52;;;;;;;2.30;47.07;99896.84;5066688;28;20120;-38
2022/04/18 02:12:18;;;;;;;7.47;1.73;;;;;;;2.29;47.02;99894.25;5036925;28;20064;-38
2022/04/18 02:14:55;;;;;;;6.90;1.92;;;;;;;2.29;47.22;99899.41;5059593;28;20471;-38
2022/04/18 02:17:22;;;;;;;4.13;1.42;;;;;;;2.18;47.40;99878.84;5063135;28;20135;-38
2022/04/18 02:20:07;;;;;;;4.63;2.10;;;;;;;2.28;47.22;99895.09;5053797;28;20127;-38
2022/04/18 02:22:33;;;;;;;7.70;2.10;;;;;;;2.28;47.41;99897.69;5049328;28;20131;-37
2022/04/18 02:24:59;;;;;;;6.95;2.00;;;;;;;2.26;47.74;99894.25;5052591;28;20048;-38
2022/04/18 02:27:25;;;;;;;7.85;1.60;;;;;;;2.28;47.58;99897.69;5051409;28;20041;-38
2022/04/18 02:29:51;;;;;;;6.68;2.60;;;;;;;2.28;47.44;99887.41;5061564;28;20504;-37
2022/04/18 02:35:04;;;;;;;7.35;1.63;;;;;;;2.27;47.33;99893.38;5043895;28;20472;-38
2022/04/18 02:37:30;;;;;;;6.03;1.80;;;;;;;2.28;47.34;99884.84;5033185;28;20040;-37
2022/04/18 02:39:59;;;;;;;4.75;1.75;;;;;;;2.27;47.46;99890.81;5049930;28;20059;-38
2022/04/18 02:42:44;;;;;;;5.50;2.03;;;;;;;2.29;47.39;99896.81;5049952;28;20412;-39
2022/04/18 02:45:14;;;;;;;4.40;1.52;;;;;;;2.29;47.74;99900.25;5038458;28;20086;-39
2022/04/18 02:47:58;;;;;;;5.85;1.83;;;;;;;2.29;47.44;99902.81;5068287;28;20103;-38
2022/04/18 02:50:24;;;;;;;3.92;1.73;;;;;;;2.30;47.61;99909.66;5044141;28;20469;-38
2022/04/18 02:52:50;;;;;;;5.78;1.60;;;;;;;2.19;47.73;99878.00;5032698;28;20124;-38
2022/04/18 02:55:33;;;;;;;4.72;1.85;;;;;;;2.36;47.57;99901.97;5050082;28;20068;-38
2022/04/18 02:57:59;;;;;;;10.20;1.90;;;;;;;2.38;47.70;99901.97;5051693;28;20080;-38
2022/04/18 03:00:28;;;;;;;5.80;2.05;;;;;;;2.42;47.64;99893.41;5067916;28;20029;-38
2022/04/18 03:03:13;;;;;;;3.92;2.03;;;;;;;2.43;47.57;99900.28;5069090;28;20109;-38
2022/04/18 03:05:43;;;;;;;11.88;2.00;;;;;;;2.45;47.26;99893.44;5042848;28;20040;-38
2022/04/18 03:08:10;;;;;;;13.13;3.65;;;;;;;2.33;47.51;99868.63;5049437;28;20037;-39
2022/04/18 03:11:04;;;;;;;10.68;2.65;;;;;;;2.50;47.59;99890.03;5069344;28;20048;-39
2022/04/18 03:13:33;;;;;;;10.98;2.05;;;;;;;2.53;47.47;99884.88;5063907;28;20064;-38
2022/04/18 03:16:01;;;;;;;11.07;2.50;;;;;;;2.54;47.46;99884.03;5048751;28;20117;-39
2022/04/18 03:18:46;;;;;;;9.88;2.35;;;;;;;2.60;47.53;99893.47;5050073;28;20040;-37
2022/04/18 03:21:13;;;;;;;8.80;2.10;;;;;;;2.64;47.51;99889.19;5048889;28;20041;-38
2022/04/18 03:23:39;;;;;;;7.38;2.00;;;;;;;2.68;47.27;99891.75;5050094;28;20040;-39
2022/04/18 03:26:11;;;;;;;4.43;1.98;;;;;;;2.62;47.42;99873.75;5059590;28;20124;-39
2022/04/18 03:28:55;;;;;;;10.98;1.98;;;;;;;2.76;47.53;99892.63;5063616;28;20531;-38
2022/04/18 03:31:40;;;;;;;3.80;1.52;;;;;;;2.81;47.45;99895.19;5050159;28;20201;-39
2022/04/18 03:34:07;;;;;;;20.92;2.67;;;;;;;2.84;47.28;99898.59;5060538;28;20181;-39
2022/04/18 03:39:51;;;;;;;9.05;2.22;;;;;;;2.92;47.29;99893.47;5028728;28;20045;-39
2022/04/18 03:45:15;;;;;;;11.90;2.65;;;;;;;3.00;47.19;99891.75;5047883;28;20143;-40
2022/04/18 03:47:59;;;;;;;7.20;2.33;;;;;;;3.03;46.76;99881.50;5049317;28;20041;-38
2022/04/18 03:50:25;;;;;;;2.67;1.42;;;;;;;3.09;46.71;99890.91;5048910;28;20124;-38
2022/04/18 03:53:09;;;;;;;12.35;2.20;;;;;;;3.16;46.54;99882.31;5049211;28;20053;-38
2022/04/18 03:55:54;;;;;;;9.88;2.08;;;;;;;3.23;46.60;99884.03;5048206;28;20048;-39
2022/04/18 04:01:24;;;;;;;5.65;2.00;;;;;;;3.41;46.37;99889.13;5038214;28;20090;-38
2022/04/18 04:03:50;;;;;;;5.80;1.65;;;;;;;3.49;46.16;99886.53;5048903;28;20041;-38
2022/04/18 04:06:18;;;;;;;6.25;2.33;;;;;;;3.60;46.66;99882.22;5047417;28;20531;-39
2022/04/18 04:08:44;;;;;;;14.10;2.30;;;;;;;3.65;46.18;99872.78;5047515;28;20072;-39
2022/04/18 04:11:11;;;;;;;12.00;2.53;;;;;;;3.67;46.24;99889.91;5047670;28;20048;-40
2022/04/18 04:13:40;;;;;;;16.30;2.50;;;;;;;3.70;46.26;99882.19;5047672;28;20094;-38
2022/04/18 04:16:11;;;;;;;8.27;2.30;;;;;;;3.73;46.10;99883.88;5047553;28;20052;-38
2022/04/18 04:18:37;;;;;;;13.32;2.72;;;;;;;3.78;46.22;99880.44;5046411;28;20068;-39
2022/04/18 04:21:06;;;;;;;14.93;2.88;;;;;;;3.85;46.10;99886.41;5047343;28;20505;-38
2022/04/18 04:24:09;;;;;;;13.50;2.80;;;;;;;3.91;46.03;99882.97;5047682;28;20051;-38
2022/04/18 04:26:44;;;;;;;8.98;2.10;;;;;;;3.94;45.92;99881.22;5081339;28;20182;-39
2022/04/18 04:29:12;;;;;;;5.70;1.98;;;;;;;4.04;45.88;99879.47;5047597;28;20064;-39
2022/04/18 04:31:52;;;;;;;7.22;2.25;;;;;;;4.11;45.62;99876.00;5046556;28;20071;-39
2022/04/18 04:34:18;;;;;;;9.90;2.65;;;;;;;4.20;45.90;99874.22;5047392;28;20036;-38
2022/04/18 04:36:53;;;;;;;6.72;2.90;;;;;;;4.22;45.98;99863.94;5046541;28;20083;-39
2022/04/18 04:39:22;;;;;;;8.55;3.33;;;;;;;4.34;45.56;99876.75;5047002;28;20090;-40
2022/04/18 04:41:47;;;;;;;11.93;2.65;;;;;;;4.39;46.11;99869.84;5046943;28;20041;-39
2022/04/18 04:44:13;;;;;;;8.60;2.50;;;;;;;4.44;45.65;99868.09;5046894;28;20049;-38
2022/04/18 04:46:54;;;;;;;13.07;3.03;;;;;;;4.52;45.73;99875.75;5044016;28;20111;-39
2022/04/18 04:49:21;;;;;;;32.35;3.95;;;;;;;4.60;46.54;99868.84;5079002;28;20045;-39
2022/04/18 04:52:07;;;;;;;14.15;2.67;;;;;;;4.66;46.29;99874.78;5046306;28;20072;-39
2022/04/18 04:54:34;;;;;;;5.72;2.58;;;;;;;4.74;46.26;99874.72;5045908;28;20063;-39
2022/04/18 04:57:00;;;;;;;9.57;2.83;;;;;;;4.85;46.35;99864.34;5076067;28;20432;-39
2022/04/18 04:59:39;;;;;;;12.77;2.67;;;;;;;4.91;46.19;99867.72;5042966;28;20056;-39
2022/04/18 05:02:05;;;;;;;18.42;3.20;;;;;;;4.99;46.55;99865.91;5030162;28;20045;-40
2022/04/18 05:04:32;;;;;;;9.60;2.85;;;;;;;5.09;46.06;99871.84;5045763;28;20110;-39
2022/04/18 05:06:59;;;;;;;12.77;3.10;;;;;;;5.18;46.66;99866.63;5044231;28;20041;-40
2022/04/18 05:09:40;;;;;;;5.68;2.60;;;;;;;5.21;46.12;99866.59;5045051;28;20147;-40
2022/04/18 05:12:08;;;;;;;7.40;2.60;;;;;;;5.36;45.95;99871.56;5050362;28;20346;-40
2022/04/18 05:14:34;;;;;;;13.10;3.65;;;;;;;5.35;46.08;99850.97;5063397;28;20076;-40
2022/04/18 05:17:06;;;;;;;7.30;2.65;;;;;;;5.53;46.63;99867.09;5046653;28;20102;-39
2022/04/18 05:19:35;;;;;;;16.08;3.47;;;;;;;5.65;45.86;99873.00;5046027;28;20040;-38
2022/04/18 05:22:26;;;;;;;6.05;2.20;;;;;;;5.75;45.88;99869.44;5043251;28;20080;-38
2022/04/18 05:24:55;;;;;;;6.68;2.85;;;;;;;5.84;46.10;99877.06;5045746;28;20126;-39
2022/04/18 05:27:33;;;;;;;9.57;3.97;;;;;;;5.90;46.33;99858.97;5043250;28;20036;-39
2022/04/18 05:29:59;;;;;;;13.45;3.00;;;;;;;6.08;46.25;99869.03;5044784;28;20631;-38
2022/04/18 05:32:25;;;;;;;13.60;3.00;;;;;;;6.17;45.82;99870.66;5043035;28;20041;-40
2022/04/18 05:35:00;;;;;;;6.85;3.30;;;;;;;6.24;45.72;99856.78;5027531;28;20032;-39
2022/04/18 05:37:28;;;;;;;9.70;3.08;;;;;;;6.36;45.51;99862.63;5057597;28;20037;-40
2022/04/18 05:40:08;;;;;;;11.00;2.92;;;;;;;6.47;45.51;99870.22;5041626;28;20650;-44
2022/04/18 05:42:35;;;;;;;7.75;3.38;;;;;;;6.50;45.12;99857.25;5030354;28;20436;-42
2022/04/18 05:45:08;;;;;;;9.10;3.28;;;;;;;6.51;45.02;99842.59;5046846;28;20041;-40
2022/04/18 05:47:36;;;;;;;6.82;3.33;;;;;;;6.75;44.82;99865.50;5030879;28;20459;-42
2022/04/18 05:50:04;;;;;;;10.15;2.75;;;;;;;6.81;45.15;99863.63;5049756;28;20060;-43
2022/04/18 05:52:32;;;;;;;7.07;2.80;;;;;;;6.86;45.01;99866.13;5045424;28;20041;-45
2022/04/18 05:55:09;;;;;;;12.05;3.67;;;;;;;6.92;44.37;99867.78;5027459;28;20076;-40
2022/04/18 05:57:40;;;;;;;5.72;2.55;;;;;;;7.04;44.75;99863.25;5012713;28;20040;-39
2022/04/18 06:00:08;;;;;;;7.70;2.22;;;;;;;7.16;44.45;99873.41;5046100;28;20587;-39
2022/04/18 06:02:37;;;;;;;6.18;2.58;;;;;;;7.37;44.33;99869.56;5051376;28;20585;-39
2022/04/18 06:05:06;;;;;;;12.80;2.65;;;;;;;7.56;44.40;99868.34;5043963;28;20040;-40
2022/04/18 06:07:53;;;;;;;7.85;2.00;;;;;;;7.74;43.77;99851.63;5049718;28;20040;-40
2022/04/18 06:10:42;;;;;;;3.47;2.38;;;;;;;8.32;42.52;99861.59;5049600;28;20515;-38
2022/04/18 06:13:34;;;;;;;8.18;2.30;;;;;;;9.35;40.92;99872.03;5053186;28;20523;-40
2022/04/18 06:16:06;;;;;;;9.05;2.20;;;;;;;10.39;38.93;99866.50;5043932;28;20049;-39
2022/04/18 06:18:33;;;;;;;23.48;3.45;;;;;;;11.42;37.03;99861.31;5067185;28;20036;-40
2022/04/18 06:21:03;;;;;;;6.82;1.92;;;;;;;12.57;35.03;99865.75;5064752;28;20116;-40
2022/04/18 06:23:30;;;;;;;6.45;2.20;;;;;;;13.63;33.71;99863.94;5049783;28;20048;-40
2022/04/18 06:26:15;;;;;;;4.28;1.80;;;;;;;14.80;31.80;99859.34;5063111;28;20496;-40
2022/04/18 06:28:42;;;;;;;8.00;2.30;;;;;;;15.71;30.62;99856.47;5067893;28;20569;-40
2022/04/18 06:31:08;;;;;;;10.45;1.98;;;;;;;16.42;29.19;99854.38;5054389;28;20063;-39
2022/04/18 06:33:39;;;;;;;8.57;1.50;;;;;;;17.06;27.83;99856.00;5046836;28;20045;-40
2022/04/18 06:36:06;;;;;;;15.10;2.22;;;;;;;17.63;26.94;99855.22;5061557;28;20103;-39
2022/04/18 06:38:38;;;;;;;6.10;2.67;;;;;;;18.59;25.60;99851.81;5054700;28;20506;-39
2022/04/18 06:41:11;;;;;;;5.82;1.90;;;;;;;19.34;24.69;99856.47;5049625;28;20078;-40
2022/04/18 06:43:36;;;;;;;7.45;2.47;;;;;;;20.18;23.48;99850.66;5048892;28;20599;-39
2022/04/18 06:46:08;;;;;;;6.95;2.55;;;;;;;20.85;22.56;99845.78;5049138;28;20122;-40
2022/04/18 06:48:35;;;;;;;12.00;1.95;;;;;;;21.52;21.52;99852.13;5049298;28;20051;-40
2022/04/18 06:51:36;;;;;;;8.50;1.95;;;;;;;22.37;21.04;99861.34;5042796;28;20041;-39
2022/04/18 06:54:25;;;;;;;5.05;2.42;;;;;;;22.90;20.02;99848.19;5000632;28;20529;-40
2022/04/18 06:56:59;;;;;;;16.45;4.90;;;;;;;23.41;19.58;99862.41;5046066;28;20048;-39
2022/04/18 06:59:33;;;;;;;5.85;1.67;;;;;;;23.98;18.71;99866.38;5044015;28;20057;-41
2022/04/18 07:02:00;;;;;;;4.90;2.05;;;;;;;24.48;18.34;99865.47;5050533;28;20525;-41
2022/04/18 07:04:26;;;;;;;3.97;1.52;;;;;;;24.94;17.95;99842.75;5041229;28;20065;-40
2022/04/18 07:06:54;;;;;;;5.60;1.80;;;;;;;25.39;17.39;99853.63;5065209;28;20144;-40
2022/04/18 07:09:22;;;;;;;2.45;1.50;;;;;;;25.72;16.56;99861.16;5049023;28;20102;-38
2022/04/18 07:11:51;;;;;;;3.85;1.50;;;;;;;26.23;16.04;99862.50;5047760;28;20045;-40
2022/04/18 07:14:19;;;;;;;6.50;1.95;;;;;;;26.67;15.66;99858.19;5047924;28;20044;-39
2022/04/18 07:16:50;;;;;;;8.73;1.90;;;;;;;27.07;15.44;99856.91;5048338;28;20041;-41
2022/04/18 07:19:23;;;;;;;9.38;1.83;;;;;;;27.42;15.07;99856.88;5048527;28;20053;-41
2022/04/18 07:21:50;;;;;;;14.10;2.63;;;;;;;27.72;14.94;99843.09;5048592;28;20079;-42
2022/04/18 07:24:17;;;;;;;4.07;2.13;;;;;;;28.21;14.71;99846.84;5048474;28;20508;-40
2022/04/18 07:26:45;;;;;;;9.98;3.17;;;;;;;28.57;14.22;99828.75;5048250;28;20119;-39
2022/04/18 07:29:11;;;;;;;3.22;1.85;;;;;;;29.22;13.91;99850.25;5050046;28;20083;-40
2022/04/18 07:31:38;;;;;;;4.03;2.15;;;;;;;29.54;13.74;99846.72;5047166;28;20509;-41
2022/04/18 07:34:04;;;;;;;5.53;2.20;;;;;;;29.73;13.30;99838.28;5047997;28;20052;-40
2022/04/18 07:36:30;;;;;;;31.05;9.00;;;;;;;29.80;13.48;99841.13;5046604;28;20037;-39
2022/04/18 07:38:56;;;;;;;7.85;2.38;;;;;;;29.75;13.02;99841.66;5047467;28;20420;-46
2022/04/18 07:41:29;;;;;;;5.13;1.95;;;;;;;29.83;13.27;99835.44;5047594;28;20124;-41
2022/04/18 07:43:57;;;;;;;8.10;2.03;;;;;;;29.93;13.14;99838.78;5047953;28;20045;-40
2022/04/18 07:46:25;;;;;;;8.23;2.45;;;;;;;30.08;13.01;99830.84;5048086;28;20064;-40
2022/04/18 07:48:52;;;;;;;8.30;1.98;;;;;;;29.98;12.91;99831.06;5048168;28;20044;-39
2022/04/18 07:51:32;;;;;;;10.70;2.60;;;;;;;29.42;13.01;99843.56;5048141;28;20635;-39
2022/04/18 07:53:58;;;;;;;6.72;2.65;;;;;;;28.83;13.27;99825.13;5047603;28;20179;-41
2022/04/18 07:56:25;;;;;;;8.30;2.88;;;;;;;28.19;13.57;99802.56;5047836;28;20131;-40
2022/04/18 07:58:52;;;;;;;9.32;2.22;;;;;;;27.88;14.14;99825.47;5044513;28;20128;-40
2022/04/18 08:01:27;;;;;;;4.38;1.75;;;;;;;27.61;13.78;99805.94;5047839;28;20131;-41
2022/04/18 08:03:56;;;;;;;4.25;2.03;;;;;;;27.71;13.76;99819.19;5047609;28;20056;-40
2022/04/18 08:06:22;;;;;;;7.78;2.10;;;;;;;27.89;13.69;99819.97;5079873;28;20043;-39
2022/04/18 08:09:00;;;;;;;8.70;2.20;;;;;;;27.92;13.59;99821.47;5030827;28;20469;-40
2022/04/18 08:11:26;;;;;;;8.48;1.90;;;;;;;27.87;13.63;99807.75;5047722;28;20132;-41
2022/04/18 08:13:53;;;;;;;8.70;1.77;;;;;;;28.01;13.42;99813.31;5064586;28;20119;-40
2022/04/18 08:16:38;;;;;;;5.80;1.70;;;;;;;28.59;13.19;99809.84;5048723;28;20048;-40
2022/04/18 08:19:13;;;;;;;5.43;2.33;;;;;;;29.02;13.00;99811.41;5047841;28;20045;-40
2022/04/18 08:21:39;;;;;;;9.50;2.80;;;;;;;29.38;12.79;99811.91;5046912;28;20048;-41
2022/04/18 08:24:05;;;;;;;11.68;3.05;;;;;;;29.85;12.87;99803.91;5046383;28;20048;-39
2022/04/18 08:26:38;;;;;;;10.60;2.55;;;;;;;30.44;12.48;99807.88;5048365;28;20481;-41
2022/04/18 08:29:21;;;;;;;6.28;1.77;;;;;;;30.50;11.84;99812.56;5046919;28;20551;-40
2022/04/18 08:32:06;;;;;;;7.38;1.90;;;;;;;30.36;11.71;99797.16;5048105;28;20098;-41
2022/04/18 08:34:33;;;;;;;15.40;3.42;;;;;;;30.38;11.85;99807.72;5047149;28;20471;-42
2022/04/18 08:36:58;;;;;;;6.97;2.80;;;;;;;30.37;11.46;99803.38;5047028;28;20048;-39
2022/04/18 08:39:42;;;;;;;6.43;2.13;;;;;;;30.25;11.65;99793.03;5047392;28;20052;-40
2022/04/18 08:42:10;;;;;;;5.75;2.00;;;;;;;30.22;12.11;99797.91;5047316;28;20043;-41
2022/04/18 08:44:42;;;;;;;4.20;2.58;;;;;;;30.00;11.79;99778.06;5046996;28;20394;-40
2022/04/18 08:52:43;;;;;;;5.22;1.70;;;;;;;29.98;11.87;99788.16;5047164;28;20128;-40
2022/04/18 08:52:44;;;;;;;8.15;2.58;;;;;;;30.14;11.76;99784.56;5053511;28;20053;-39
2022/04/18 08:55:30;;;;;;;8.95;2.85;;;;;;;30.22;12.17;99784.50;5060883;28;20127;-41
2022/04/18 08:57:57;;;;;;;6.57;3.22;;;;;;;30.82;11.38;99781.13;5063406;28;20033;-40
2022/04/18 09:00:24;;;;;;;5.80;1.90;;;;;;;30.88;11.13;99783.09;5078612;28;20068;-40
2022/04/18 09:03:04;;;;;;;3.45;1.50;;;;;;;30.60;11.49;99772.06;5046281;28;20057;-40
2022/04/18 09:05:39;;;;;;;10.60;1.92;;;;;;;30.46;11.13;99765.56;5046655;28;20055;-38
2022/04/18 09:08:09;;;;;;;5.25;1.50;;;;;;;30.27;11.70;99776.78;5046458;28;20036;-40
2022/04/18 09:10:39;;;;;;;3.58;1.70;;;;;;;29.70;11.30;99766.28;5046770;28;20532;-40
2022/04/18 09:13:07;;;;;;;7.63;1.90;;;;;;;29.79;11.84;99762.56;5046353;28;20044;-40
2022/04/18 09:15:55;;;;;;;13.75;6.22;;;;;;;29.87;11.73;99756.34;5046451;28;20045;-40
2022/04/18 09:18:23;;;;;;;7.35;2.50;;;;;;;29.27;11.94;99759.50;5046297;28;20052;-40
2022/04/18 09:20:54;;;;;;;5.03;1.98;;;;;;;28.59;12.09;99751.81;5046615;28;20069;-41
2022/04/18 09:23:24;;;;;;;6.65;1.70;;;;;;;27.50;12.54;99752.78;5029880;28;20033;-40
2022/04/18 09:26:10;;;;;;;8.75;1.63;;;;;;;27.00;13.03;99749.97;5030245;28;20043;-40
2022/04/18 09:28:41;;;;;;;5.40;1.80;;;;;;;26.95;13.10;99744.25;5047324;28;20079;-40
2022/04/18 09:31:13;;;;;;;6.22;2.13;;;;;;;27.38;13.28;99743.34;5046554;28;20126;-40
2022/04/18 09:33:43;;;;;;;9.00;2.42;;;;;;;27.70;13.10;99740.03;5046708;28;20036;-40
2022/04/18 09:36:11;;;;;;;6.45;2.10;;;;;;;27.71;13.06;99745.22;5049471;28;20052;-39
2022/04/18 09:38:43;;;;;;;12.38;2.20;;;;;;;27.72;13.34;99733.53;5047144;28;20407;-41
2022/04/18 09:41:31;;;;;;;3.80;1.73;;;;;;;27.90;13.30;99738.75;5051808;28;20049;-40
2022/04/18 09:44:07;;;;;;;10.48;2.08;;;;;;;28.02;13.08;99723.28;5083864;28;20128;-40
2022/04/18 09:46:39;;;;;;;5.53;2.65;;;;;;;28.22;12.93;99733.53;5050161;28;20053;-41
2022/04/18 09:49:39;;;;;;;4.20;1.90;;;;;;;28.30;12.85;99735.41;5051397;28;20057;-39
2022/04/18 09:52:09;;;;;;;11.63;2.75;;;;;;;28.20;13.02;99729.38;5049997;28;20143;-40
2022/04/18 09:54:35;;;;;;;7.82;2.80;;;;;;;28.33;13.15;99727.03;5051503;28;20148;-41
2022/04/18 09:57:08;;;;;;;4.28;1.90;;;;;;;28.70;12.80;99718.53;5051284;28;20056;-40
2022/04/18 09:59:34;;;;;;;6.20;2.10;;;;;;;28.98;12.61;99725.25;5048463;28;20047;-40
2022/04/18 10:02:00;;;;;;;4.60;2.10;;;;;;;29.18;12.32;99727.56;5051290;28;20045;-41
2022/04/18 10:04:26;;;;;;;4.85;2.45;;;;;;;29.36;12.28;99721.00;5050074;28;20053;-42
2022/04/18 10:06:56;;;;;;;5.93;1.90;;;;;;;29.68;12.03;99724.56;5050338;28;20516;-40
2022/04/18 10:09:23;;;;;;;5.03;2.03;;;;;;;29.80;11.64;99704.41;5051401;28;20094;-39
2022/04/18 10:11:50;;;;;;;9.30;4.55;;;;;;;30.26;11.78;99708.03;5051234;28;20060;-40
2022/04/18 10:14:16;;;;;;;11.05;2.63;;;;;;;30.49;11.56;99708.06;5050015;28;20121;-41
2022/04/18 10:16:42;;;;;;;10.30;2.70;;;;;;;30.69;11.64;99703.88;5044986;28;20076;-40
2022/04/18 10:19:54;;;;;;;4.78;2.13;;;;;;;31.12;11.05;99713.06;5049985;28;20546;-39
2022/04/18 10:22:38;;;;;;;5.70;2.03;;;;;;;31.47;11.22;99714.19;5050714;28;20634;-39
2022/04/18 10:25:20;;;;;;;5.35;2.85;;;;;;;31.85;10.99;99710.38;5049936;28;20408;-39
2022/04/18 10:27:52;;;;;;;9.27;2.30;;;;;;;32.29;10.73;99704.88;5050569;28;20043;-41
2022/04/18 10:30:18;;;;;;;6.13;2.85;;;;;;;32.42;10.79;99692.56;5050587;28;20497;-42
2022/04/18 10:32:46;;;;;;;9.60;2.70;;;;;;;32.55;10.79;99700.78;5048764;28;20052;-40
2022/04/18 10:35:13;;;;;;;6.72;2.35;;;;;;;32.88;10.66;99703.75;5049123;28;20060;-39
2022/04/18 10:37:42;;;;;;;5.70;2.15;;;;;;;32.77;10.51;99707.81;5050267;28;20041;-40
2022/04/18 10:40:09;;;;;;;2.45;1.95;;;;;;;32.87;10.41;99704.81;5050506;28;20841;-40
2022/04/18 10:42:43;;;;;;;5.68;2.55;;;;;;;33.13;10.10;99713.09;5049693;28;20102;-40
2022/04/18 10:45:11;;;;;;;5.05;2.08;;;;;;;33.60;10.08;99715.06;5050313;28;20098;-41
2022/04/18 10:47:58;;;;;;;6.93;2.40;;;;;;;33.79;9.66;99700.00;5049199;28;20425;-39
2022/04/18 10:50:28;;;;;;;9.40;2.15;;;;;;;33.32;9.93;99696.22;5050479;28;20040;-39
2022/04/18 10:53:17;;;;;;;4.00;2.03;;;;;;;32.84;10.21;99687.16;5053273;28;20041;-40
2022/04/18 10:55:51;;;;;;;2.92;2.10;;;;;;;32.42;10.30;99688.03;5050088;28;20054;-41
2022/04/18 10:58:29;;;;;;;5.03;2.60;;;;;;;32.02;10.64;99686.78;5028398;28;20048;-40
2022/04/18 11:00:57;;;;;;;5.03;2.35;;;;;;;31.79;10.96;99670.78;5062267;28;20442;-42
2022/04/18 11:03:35;;;;;;;6.22;2.20;;;;;;;32.14;10.66;99684.41;5049507;28;20070;-39
2022/04/18 11:06:02;;;;;;;6.97;2.03;;;;;;;32.42;10.57;99679.13;5050031;28;20393;-40
2022/04/18 11:08:35;;;;;;;4.30;2.20;;;;;;;32.45;10.44;99681.44;5049588;28;20083;-42
2022/04/18 11:11:07;;;;;;;3.88;1.77;;;;;;;32.65;10.41;99679.78;5049277;28;20045;-40
2022/04/18 11:13:33;;;;;;;6.20;2.20;;;;;;;32.79;10.40;99681.53;5065271;28;20112;-39
2022/04/18 11:16:24;;;;;;;11.48;6.35;;;;;;;32.66;9.99;99684.94;5049889;28;20145;-40
2022/04/18 11:19:09;;;;;;;3.33;2.05;;;;;;;32.69;10.08;99681.88;5038388;28;20497;-42
2022/04/18 11:21:56;;;;;;;7.72;2.10;;;;;;;33.08;10.18;99669.75;5049467;28;20554;-42
2022/04/18 11:24:48;;;;;;;2.47;1.85;;;;;;;33.20;9.70;99676.25;5064570;28;20505;-41
2022/04/18 11:27:14;;;;;;;6.38;2.10;;;;;;;33.19;10.03;99682.66;5049479;28;20050;-42
2022/04/18 11:29:41;;;;;;;6.18;2.28;;;;;;;33.28;9.89;99675.28;5049079;28;20037;-40
2022/04/18 11:32:08;;;;;;;6.45;3.15;;;;;;;33.23;9.93;99664.25;5049285;28;20047;-40
2022/04/18 11:34:35;;;;;;;5.65;2.40;;;;;;;33.28;9.94;99649.16;5048883;28;20186;-41
2022/04/18 11:37:03;;;;;;;10.32;2.58;;;;;;;33.25;9.51;99656.78;5048599;28;20785;-41
2022/04/18 11:39:49;;;;;;;;;;;;;;;33.12;9.50;99662.91;5048595;28;20037;-41
2022/04/18 11:42:20;;;;;;;5.30;2.20;;;;;;;33.20;9.93;99658.22;5047849;28;19959;-41
2022/04/18 11:44:47;;;;;;;5.30;2.10;;;;;;;33.18;9.88;99657.56;5049415;28;20155;-40
2022/04/18 11:47:24;;;;;;;11.52;2.60;;;;;;;33.18;9.79;99656.75;5049092;28;20063;-39
2022/04/18 11:49:55;;;;;;;11.00;3.03;;;;;;;33.07;9.65;99646.50;5048782;28;20036;-40
2022/04/18 11:52:25;;;;;;;5.22;2.17;;;;;;;33.00;9.72;99649.16;5048571;28;20047;-40
2022/04/18 11:55:00;;;;;;;4.60;1.98;;;;;;;33.08;9.59;99645.50;5048802;28;20032;-39
2022/04/18 11:57:28;;;;;;;4.57;1.90;;;;;;;33.04;9.42;99646.88;5048513;28;20094;-41
2022/04/18 11:59:54;;;;;;;3.53;1.90;;;;;;;33.22;9.13;99644.56;5046825;28;20037;-41
2022/04/18 12:08:03;;;;;;;4.20;1.90;;;;;;;31.93;9.67;99632.25;5063821;28;20428;-41
2022/04/18 12:10:33;;;;;;;7.50;2.00;;;;;;;31.04;10.44;99633.38;5047387;28;20461;-40
2022/04/18 12:13:00;;;;;;;6.07;2.40;;;;;;;31.13;10.22;99626.94;5047565;28;20048;-40
2022/04/18 12:15:28;;;;;;;6.22;2.15;;;;;;;31.21;10.15;99619.78;5048793;28;20064;-40
2022/04/18 12:17:56;;;;;;;6.25;2.00;;;;;;;31.31;10.15;99615.78;5048256;28;20059;-41
2022/04/18 12:20:23;;;;;;;5.38;2.45;;;;;;;31.50;9.87;99622.44;5064003;28;20041;-40
2022/04/18 12:22:52;;;;;;;8.00;2.07;;;;;;;31.38;9.98;99595.22;5048329;28;20105;-41
2022/04/18 12:25:21;;;;;;;5.13;1.90;;;;;;;31.63;10.25;99606.47;5048547;28;20276;-41
2022/04/18 12:27:47;;;;;;;3.88;2.00;;;;;;;31.60;10.20;99593.44;5048261;28;20040;-42
2022/04/18 12:30:13;;;;;;;10.68;2.10;;;;;;;31.49;10.11;99601.94;5048486;28;20052;-41
2022/04/18 12:32:39;;;;;;;4.40;2.30;;;;;;;31.34;9.85;99598.47;5063983;28;20467;-39
2022/04/18 12:35:05;;;;;;;9.77;2.47;;;;;;;30.83;10.47;99592.19;5064322;28;20040;-43
2022/04/18 12:37:31;;;;;;;14.32;1.90;;;;;;;30.70;10.61;99598.16;5047194;28;20123;-40